sensor_id;sensor_type;location;lat;lon;timestamp;P1;durP1;ratioP1;P2;durP2;ratioP2
61013;SDS011;46899;47.542;19.082;2024-03-08T00:00:52;21.33;;;12.98;;
61013;SDS011;46899;47.542;19.082;2024-03-08T00:04:09;22.67;;;13.68;;
61013;SDS011;46899;47.542;19.082;2024-03-08T00:10:33;19.48;;;11.80;;
61013;SDS011;46899;47.542;19.082;2024-03-08T00:13:43;21.62;;;12.75;;
61013;SDS011;46899;47.542;19.082;2024-03-08T00:16:57;21.48;;;12.60;;
61013;SDS011;46899;47.542;19.082;2024-03-08T00:20:13;19.25;;;12.45;;
61013;SDS011;46899;47.542;19.082;2024-03-08T00:23:27;22.85;;;13.55;;
61013;SDS011;46899;47.542;19.082;2024-03-08T00:26:39;20.52;;;12.95;;
61013;SDS011;46899;47.542;19.082;2024-03-08T00:29:53;22.13;;;13.97;;
61013;SDS011;46899;47.542;19.082;2024-03-08T00:33:03;21.62;;;13.75;;
61013;SDS011;46899;47.542;19.082;2024-03-08T00:36:16;21.73;;;13.45;;
61013;SDS011;46899;47.542;19.082;2024-03-08T00:39:27;21.02;;;13.77;;
61013;SDS011;46899;47.542;19.082;2024-03-08T00:42:40;24.10;;;13.95;;
61013;SDS011;46899;47.542;19.082;2024-03-08T00:45:48;24.23;;;13.77;;
61013;SDS011;46899;47.542;19.082;2024-03-08T00:49:01;21.37;;;13.05;;
61013;SDS011;46899;47.542;19.082;2024-03-08T00:52:17;22.67;;;13.70;;
61013;SDS011;46899;47.542;19.082;2024-03-08T00:55:28;22.58;;;14.02;;
61013;SDS011;46899;47.542;19.082;2024-03-08T00:58:39;25.52;;;15.02;;
61013;SDS011;46899;47.542;19.082;2024-03-08T01:01:53;22.33;;;14.07;;
61013;SDS011;46899;47.542;19.082;2024-03-08T01:05:04;22.40;;;13.18;;
61013;SDS011;46899;47.542;19.082;2024-03-08T01:08:17;21.52;;;13.73;;
61013;SDS011;46899;47.542;19.082;2024-03-08T01:11:28;22.35;;;14.27;;
61013;SDS011;46899;47.542;19.082;2024-03-08T01:14:41;23.87;;;14.90;;
61013;SDS011;46899;47.542;19.082;2024-03-08T01:17:52;23.55;;;14.02;;
61013;SDS011;46899;47.542;19.082;2024-03-08T01:21:01;22.80;;;14.32;;
61013;SDS011;46899;47.542;19.082;2024-03-08T01:24:14;21.40;;;13.77;;
61013;SDS011;46899;47.542;19.082;2024-03-08T01:27:27;20.60;;;13.45;;
61013;SDS011;46899;47.542;19.082;2024-03-08T01:30:40;24.52;;;14.57;;
61013;SDS011;46899;47.542;19.082;2024-03-08T01:33:53;23.05;;;14.50;;
61013;SDS011;46899;47.542;19.082;2024-03-08T01:37:03;22.48;;;14.77;;
61013;SDS011;46899;47.542;19.082;2024-03-08T01:40:17;24.25;;;14.25;;
61013;SDS011;46899;47.542;19.082;2024-03-08T01:43:28;24.98;;;14.77;;
61013;SDS011;46899;47.542;19.082;2024-03-08T01:46:42;22.85;;;13.90;;
61013;SDS011;46899;47.542;19.082;2024-03-08T01:49:53;25.48;;;14.77;;
61013;SDS011;46899;47.542;19.082;2024-03-08T01:53:08;24.48;;;15.65;;
61013;SDS011;46899;47.542;19.082;2024-03-08T01:56:21;24.02;;;14.95;;
61013;SDS011;46899;47.542;19.082;2024-03-08T01:59:34;23.55;;;15.25;;
61013;SDS011;46899;47.542;19.082;2024-03-08T02:02:48;24.87;;;15.48;;
61013;SDS011;46899;47.542;19.082;2024-03-08T02:06:04;27.50;;;15.90;;
61013;SDS011;46899;47.542;19.082;2024-03-08T02:09:20;26.17;;;15.60;;
61013;SDS011;46899;47.542;19.082;2024-03-08T02:12:30;27.98;;;17.12;;
61013;SDS011;46899;47.542;19.082;2024-03-08T02:19:03;27.15;;;17.15;;
61013;SDS011;46899;47.542;19.082;2024-03-08T02:25:28;31.25;;;16.70;;
61013;SDS011;46899;47.542;19.082;2024-03-08T02:28:41;29.80;;;18.92;;
61013;SDS011;46899;47.542;19.082;2024-03-08T02:31:57;32.33;;;18.17;;
61013;SDS011;46899;47.542;19.082;2024-03-08T02:35:12;34.20;;;17.83;;
61013;SDS011;46899;47.542;19.082;2024-03-08T02:38:24;32.17;;;18.85;;
61013;SDS011;46899;47.542;19.082;2024-03-08T02:41:34;33.45;;;18.30;;
61013;SDS011;46899;47.542;19.082;2024-03-08T02:44:46;31.77;;;18.98;;
61013;SDS011;46899;47.542;19.082;2024-03-08T02:47:58;33.80;;;18.85;;
61013;SDS011;46899;47.542;19.082;2024-03-08T02:51:14;30.73;;;17.95;;
61013;SDS011;46899;47.542;19.082;2024-03-08T02:54:26;35.83;;;18.50;;
61013;SDS011;46899;47.542;19.082;2024-03-08T02:57:38;35.28;;;19.17;;
61013;SDS011;46899;47.542;19.082;2024-03-08T03:00:51;37.47;;;20.23;;
61013;SDS011;46899;47.542;19.082;2024-03-08T03:04:01;35.20;;;19.15;;
61013;SDS011;46899;47.542;19.082;2024-03-08T03:07:13;36.25;;;19.92;;
61013;SDS011;46899;47.542;19.082;2024-03-08T03:10:25;34.72;;;20.00;;
61013;SDS011;46899;47.542;19.082;2024-03-08T03:13:39;37.25;;;20.52;;
61013;SDS011;46899;47.542;19.082;2024-03-08T03:16:54;34.72;;;19.70;;
61013;SDS011;46899;47.542;19.082;2024-03-08T03:20:07;37.40;;;20.10;;
61013;SDS011;46899;47.542;19.082;2024-03-08T03:23:26;38.53;;;21.73;;
61013;SDS011;46899;47.542;19.082;2024-03-08T03:26:41;35.80;;;20.27;;
61013;SDS011;46899;47.542;19.082;2024-03-08T03:29:54;38.97;;;21.15;;
61013;SDS011;46899;47.542;19.082;2024-03-08T03:33:07;43.95;;;20.40;;
61013;SDS011;46899;47.542;19.082;2024-03-08T03:36:21;41.17;;;22.55;;
61013;SDS011;46899;47.542;19.082;2024-03-08T03:39:32;42.92;;;21.02;;
61013;SDS011;46899;47.542;19.082;2024-03-08T03:42:49;40.00;;;21.98;;
61013;SDS011;46899;47.542;19.082;2024-03-08T03:45:58;40.63;;;22.27;;
61013;SDS011;46899;47.542;19.082;2024-03-08T03:49:11;40.85;;;22.52;;
61013;SDS011;46899;47.542;19.082;2024-03-08T03:52:24;39.70;;;20.98;;
61013;SDS011;46899;47.542;19.082;2024-03-08T03:55:35;47.45;;;22.55;;
61013;SDS011;46899;47.542;19.082;2024-03-08T03:58:48;41.78;;;23.10;;
61013;SDS011;46899;47.542;19.082;2024-03-08T04:01:58;43.45;;;22.73;;
61013;SDS011;46899;47.542;19.082;2024-03-08T04:05:11;42.78;;;21.98;;
61013;SDS011;46899;47.542;19.082;2024-03-08T04:08:22;44.00;;;22.95;;
61013;SDS011;46899;47.542;19.082;2024-03-08T04:11:34;40.22;;;23.23;;
61013;SDS011;46899;47.542;19.082;2024-03-08T04:14:49;42.15;;;21.85;;
61013;SDS011;46899;47.542;19.082;2024-03-08T04:18:01;37.92;;;20.75;;
61013;SDS011;46899;47.542;19.082;2024-03-08T04:21:13;42.30;;;22.08;;
61013;SDS011;46899;47.542;19.082;2024-03-08T04:24:24;39.72;;;20.73;;
61013;SDS011;46899;47.542;19.082;2024-03-08T04:27:31;44.45;;;22.30;;
61013;SDS011;46899;47.542;19.082;2024-03-08T04:30:44;41.55;;;21.85;;
61013;SDS011;46899;47.542;19.082;2024-03-08T04:33:53;41.92;;;21.55;;
61013;SDS011;46899;47.542;19.082;2024-03-08T04:37:07;40.40;;;21.67;;
61013;SDS011;46899;47.542;19.082;2024-03-08T04:40:23;41.72;;;21.85;;
61013;SDS011;46899;47.542;19.082;2024-03-08T04:43:35;44.70;;;23.60;;
61013;SDS011;46899;47.542;19.082;2024-03-08T04:46:51;45.70;;;21.40;;
61013;SDS011;46899;47.542;19.082;2024-03-08T04:50:04;43.10;;;21.50;;
61013;SDS011;46899;47.542;19.082;2024-03-08T04:53:13;43.00;;;23.12;;
61013;SDS011;46899;47.542;19.082;2024-03-08T04:56:27;42.15;;;22.87;;
61013;SDS011;46899;47.542;19.082;2024-03-08T04:59:35;42.28;;;22.37;;
61013;SDS011;46899;47.542;19.082;2024-03-08T05:02:46;41.92;;;21.33;;
61013;SDS011;46899;47.542;19.082;2024-03-08T05:05:58;40.45;;;22.80;;
61013;SDS011;46899;47.542;19.082;2024-03-08T05:09:07;39.53;;;21.37;;
61013;SDS011;46899;47.542;19.082;2024-03-08T05:12:19;45.42;;;23.25;;
61013;SDS011;46899;47.542;19.082;2024-03-08T05:15:28;40.45;;;22.35;;
61013;SDS011;46899;47.542;19.082;2024-03-08T05:18:43;47.67;;;22.48;;
61013;SDS011;46899;47.542;19.082;2024-03-08T05:21:57;42.22;;;21.98;;
61013;SDS011;46899;47.542;19.082;2024-03-08T05:25:10;39.42;;;21.58;;
61013;SDS011;46899;47.542;19.082;2024-03-08T05:28:23;41.85;;;22.70;;
61013;SDS011;46899;47.542;19.082;2024-03-08T05:31:31;42.42;;;21.98;;
61013;SDS011;46899;47.542;19.082;2024-03-08T05:34:58;39.65;;;22.30;;
61013;SDS011;46899;47.542;19.082;2024-03-08T05:38:10;43.13;;;21.77;;
61013;SDS011;46899;47.542;19.082;2024-03-08T05:41:25;42.83;;;22.45;;
61013;SDS011;46899;47.542;19.082;2024-03-08T05:44:33;43.75;;;23.20;;
61013;SDS011;46899;47.542;19.082;2024-03-08T05:47:47;43.05;;;23.33;;
61013;SDS011;46899;47.542;19.082;2024-03-08T05:50:59;47.42;;;23.27;;
61013;SDS011;46899;47.542;19.082;2024-03-08T05:54:12;46.35;;;23.50;;
61013;SDS011;46899;47.542;19.082;2024-03-08T05:57:25;46.03;;;24.23;;
61013;SDS011;46899;47.542;19.082;2024-03-08T06:00:33;52.28;;;27.27;;
61013;SDS011;46899;47.542;19.082;2024-03-08T06:03:46;50.45;;;24.17;;
61013;SDS011;46899;47.542;19.082;2024-03-08T06:06:55;49.05;;;24.45;;
61013;SDS011;46899;47.542;19.082;2024-03-08T06:10:10;50.33;;;24.45;;
61013;SDS011;46899;47.542;19.082;2024-03-08T06:13:23;44.72;;;23.38;;
61013;SDS011;46899;47.542;19.082;2024-03-08T06:16:35;45.45;;;22.83;;
61013;SDS011;46899;47.542;19.082;2024-03-08T06:19:42;41.53;;;22.48;;
61013;SDS011;46899;47.542;19.082;2024-03-08T06:22:52;45.90;;;23.25;;
61013;SDS011;46899;47.542;19.082;2024-03-08T06:25:59;46.10;;;24.25;;
61013;SDS011;46899;47.542;19.082;2024-03-08T06:29:02;44.42;;;23.80;;
61013;SDS011;46899;47.542;19.082;2024-03-08T06:32:09;42.25;;;22.77;;
61013;SDS011;46899;47.542;19.082;2024-03-08T06:35:13;41.10;;;22.62;;
61013;SDS011;46899;47.542;19.082;2024-03-08T06:38:22;42.30;;;23.15;;
61013;SDS011;46899;47.542;19.082;2024-03-08T06:41:29;43.08;;;23.02;;
61013;SDS011;46899;47.542;19.082;2024-03-08T06:44:39;47.70;;;22.75;;
61013;SDS011;46899;47.542;19.082;2024-03-08T06:47:52;42.30;;;22.37;;
61013;SDS011;46899;47.542;19.082;2024-03-08T06:50:59;44.10;;;21.75;;
61013;SDS011;46899;47.542;19.082;2024-03-08T06:54:03;45.47;;;22.58;;
61013;SDS011;46899;47.542;19.082;2024-03-08T06:57:12;41.55;;;23.83;;
61013;SDS011;46899;47.542;19.082;2024-03-08T07:00:19;41.63;;;22.42;;
61013;SDS011;46899;47.542;19.082;2024-03-08T07:03:24;42.25;;;23.55;;
61013;SDS011;46899;47.542;19.082;2024-03-08T07:06:31;41.47;;;22.30;;
61013;SDS011;46899;47.542;19.082;2024-03-08T07:09:39;43.87;;;21.60;;
61013;SDS011;46899;47.542;19.082;2024-03-08T07:12:50;44.50;;;23.35;;
61013;SDS011;46899;47.542;19.082;2024-03-08T07:15:55;45.92;;;22.08;;
61013;SDS011;46899;47.542;19.082;2024-03-08T07:19:01;40.05;;;22.85;;
61013;SDS011;46899;47.542;19.082;2024-03-08T07:22:09;41.22;;;22.35;;
61013;SDS011;46899;47.542;19.082;2024-03-08T07:25:18;43.85;;;23.33;;
61013;SDS011;46899;47.542;19.082;2024-03-08T07:28:25;39.83;;;22.13;;
61013;SDS011;46899;47.542;19.082;2024-03-08T07:31:33;42.85;;;22.60;;
61013;SDS011;46899;47.542;19.082;2024-03-08T07:34:56;43.70;;;22.60;;
61013;SDS011;46899;47.542;19.082;2024-03-08T07:38:00;44.22;;;22.87;;
61013;SDS011;46899;47.542;19.082;2024-03-08T07:41:03;43.05;;;22.25;;
61013;SDS011;46899;47.542;19.082;2024-03-08T07:44:08;38.65;;;22.30;;
61013;SDS011;46899;47.542;19.082;2024-03-08T07:47:15;40.40;;;21.55;;
61013;SDS011;46899;47.542;19.082;2024-03-08T07:50:28;42.22;;;22.48;;
61013;SDS011;46899;47.542;19.082;2024-03-08T07:53:42;40.50;;;21.62;;
61013;SDS011;46899;47.542;19.082;2024-03-08T07:56:48;44.10;;;22.05;;
61013;SDS011;46899;47.542;19.082;2024-03-08T07:59:56;45.00;;;22.87;;
61013;SDS011;46899;47.542;19.082;2024-03-08T08:03:00;44.47;;;22.75;;
61013;SDS011;46899;47.542;19.082;2024-03-08T08:06:05;43.97;;;22.43;;
61013;SDS011;46899;47.542;19.082;2024-03-08T08:09:10;46.00;;;23.23;;
61013;SDS011;46899;47.542;19.082;2024-03-08T08:12:25;43.90;;;22.60;;
61013;SDS011;46899;47.542;19.082;2024-03-08T08:15:28;44.83;;;22.08;;
61013;SDS011;46899;47.542;19.082;2024-03-08T08:18:32;46.25;;;22.83;;
61013;SDS011;46899;47.542;19.082;2024-03-08T08:21:39;46.20;;;23.08;;
61013;SDS011;46899;47.542;19.082;2024-03-08T08:24:46;50.35;;;23.90;;
61013;SDS011;46899;47.542;19.082;2024-03-08T08:27:55;46.15;;;22.83;;
61013;SDS011;46899;47.542;19.082;2024-03-08T08:31:05;48.08;;;24.37;;
61013;SDS011;46899;47.542;19.082;2024-03-08T08:34:13;43.85;;;22.98;;
61013;SDS011;46899;47.542;19.082;2024-03-08T08:37:18;49.83;;;24.00;;
61013;SDS011;46899;47.542;19.082;2024-03-08T08:40:23;45.42;;;24.30;;
61013;SDS011;46899;47.542;19.082;2024-03-08T08:43:33;45.17;;;23.50;;
61013;SDS011;46899;47.542;19.082;2024-03-08T08:46:38;49.05;;;24.85;;
61013;SDS011;46899;47.542;19.082;2024-03-08T08:52:59;42.70;;;22.67;;
61013;SDS011;46899;47.542;19.082;2024-03-08T08:56:03;50.25;;;24.00;;
61013;SDS011;46899;47.542;19.082;2024-03-08T08:59:16;45.28;;;22.48;;
61013;SDS011;46899;47.542;19.082;2024-03-08T09:02:25;47.97;;;23.27;;
61013;SDS011;46899;47.542;19.082;2024-03-08T09:05:29;42.55;;;23.38;;
61013;SDS011;46899;47.542;19.082;2024-03-08T09:08:34;45.20;;;23.25;;
61013;SDS011;46899;47.542;19.082;2024-03-08T09:11:37;47.00;;;23.45;;
61013;SDS011;46899;47.542;19.082;2024-03-08T09:14:46;46.92;;;23.42;;
61013;SDS011;46899;47.542;19.082;2024-03-08T09:17:55;46.65;;;23.70;;
61013;SDS011;46899;47.542;19.082;2024-03-08T09:20:58;42.03;;;21.77;;
61013;SDS011;46899;47.542;19.082;2024-03-08T09:24:07;46.72;;;23.45;;
61013;SDS011;46899;47.542;19.082;2024-03-08T09:27:11;50.28;;;25.25;;
61013;SDS011;46899;47.542;19.082;2024-03-08T09:30:15;44.92;;;23.55;;
61013;SDS011;46899;47.542;19.082;2024-03-08T09:33:25;45.12;;;23.60;;
61013;SDS011;46899;47.542;19.082;2024-03-08T09:36:32;43.87;;;23.75;;
61013;SDS011;46899;47.542;19.082;2024-03-08T09:39:36;47.08;;;23.42;;
61013;SDS011;46899;47.542;19.082;2024-03-08T09:42:46;45.50;;;24.52;;
61013;SDS011;46899;47.542;19.082;2024-03-08T09:45:51;46.60;;;23.20;;
61013;SDS011;46899;47.542;19.082;2024-03-08T09:48:57;51.67;;;25.35;;
61013;SDS011;46899;47.542;19.082;2024-03-08T09:52:07;48.67;;;24.25;;
61013;SDS011;46899;47.542;19.082;2024-03-08T09:55:14;47.42;;;24.58;;
61013;SDS011;46899;47.542;19.082;2024-03-08T09:58:26;45.40;;;23.75;;
61013;SDS011;46899;47.542;19.082;2024-03-08T10:01:41;44.67;;;23.90;;
61013;SDS011;46899;47.542;19.082;2024-03-08T10:04:49;42.65;;;23.62;;
61013;SDS011;46899;47.542;19.082;2024-03-08T10:08:00;42.45;;;24.08;;
61013;SDS011;46899;47.542;19.082;2024-03-08T10:11:07;43.95;;;23.90;;
61013;SDS011;46899;47.542;19.082;2024-03-08T10:14:10;42.58;;;23.08;;
61013;SDS011;46899;47.542;19.082;2024-03-08T10:17:16;44.72;;;25.35;;
61013;SDS011;46899;47.542;19.082;2024-03-08T10:20:22;44.35;;;23.98;;
61013;SDS011;46899;47.542;19.082;2024-03-08T10:23:27;42.35;;;22.30;;
61013;SDS011;46899;47.542;19.082;2024-03-08T10:26:31;40.97;;;22.92;;
61013;SDS011;46899;47.542;19.082;2024-03-08T10:29:48;45.42;;;23.92;;
61013;SDS011;46899;47.542;19.082;2024-03-08T10:32:55;37.90;;;21.42;;
61013;SDS011;46899;47.542;19.082;2024-03-08T10:36:04;42.65;;;23.02;;
61013;SDS011;46899;47.542;19.082;2024-03-08T10:42:32;37.40;;;20.98;;
61013;SDS011;46899;47.542;19.082;2024-03-08T10:45:41;37.17;;;21.25;;
61013;SDS011;46899;47.542;19.082;2024-03-08T10:48:55;34.63;;;20.40;;
61013;SDS011;46899;47.542;19.082;2024-03-08T10:52:06;41.50;;;21.02;;
61013;SDS011;46899;47.542;19.082;2024-03-08T10:55:18;37.33;;;21.60;;
61013;SDS011;46899;47.542;19.082;2024-03-08T10:58:26;36.42;;;20.73;;
61013;SDS011;46899;47.542;19.082;2024-03-08T11:01:31;38.47;;;19.87;;
61013;SDS011;46899;47.542;19.082;2024-03-08T11:04:38;34.05;;;20.67;;
61013;SDS011;46899;47.542;19.082;2024-03-08T11:07:42;40.05;;;20.33;;
61013;SDS011;46899;47.542;19.082;2024-03-08T11:10:51;32.10;;;18.77;;
61013;SDS011;46899;47.542;19.082;2024-03-08T11:14:02;35.63;;;20.23;;
61013;SDS011;46899;47.542;19.082;2024-03-08T11:17:09;34.45;;;20.05;;
61013;SDS011;46899;47.542;19.082;2024-03-08T11:20:18;36.92;;;20.70;;
61013;SDS011;46899;47.542;19.082;2024-03-08T11:23:25;35.40;;;20.85;;
61013;SDS011;46899;47.542;19.082;2024-03-08T11:26:30;30.48;;;19.05;;
61013;SDS011;46899;47.542;19.082;2024-03-08T11:29:35;35.35;;;21.00;;
61013;SDS011;46899;47.542;19.082;2024-03-08T11:32:44;33.13;;;21.17;;
61013;SDS011;46899;47.542;19.082;2024-03-08T11:35:49;34.55;;;19.75;;
61013;SDS011;46899;47.542;19.082;2024-03-08T11:38:54;30.77;;;18.90;;
61013;SDS011;46899;47.542;19.082;2024-03-08T11:42:00;30.90;;;18.87;;
61013;SDS011;46899;47.542;19.082;2024-03-08T11:45:07;34.05;;;18.98;;
61013;SDS011;46899;47.542;19.082;2024-03-08T11:48:16;36.70;;;20.33;;
61013;SDS011;46899;47.542;19.082;2024-03-08T11:51:22;33.17;;;19.30;;
61013;SDS011;46899;47.542;19.082;2024-03-08T11:54:27;35.55;;;19.15;;
61013;SDS011;46899;47.542;19.082;2024-03-08T11:57:31;33.33;;;19.37;;
61013;SDS011;46899;47.542;19.082;2024-03-08T12:00:36;35.78;;;20.45;;
61013;SDS011;46899;47.542;19.082;2024-03-08T12:03:48;34.25;;;20.23;;
61013;SDS011;46899;47.542;19.082;2024-03-08T12:07:09;32.88;;;19.75;;
61013;SDS011;46899;47.542;19.082;2024-03-08T12:10:20;34.20;;;20.70;;
61013;SDS011;46899;47.542;19.082;2024-03-08T12:13:29;33.38;;;20.17;;
61013;SDS011;46899;47.542;19.082;2024-03-08T12:16:37;33.05;;;22.48;;
61013;SDS011;46899;47.542;19.082;2024-03-08T12:19:45;38.20;;;22.98;;
61013;SDS011;46899;47.542;19.082;2024-03-08T12:22:51;34.78;;;21.58;;
61013;SDS011;46899;47.542;19.082;2024-03-08T12:25:57;37.90;;;21.92;;
61013;SDS011;46899;47.542;19.082;2024-03-08T12:29:15;37.72;;;22.30;;
61013;SDS011;46899;47.542;19.082;2024-03-08T12:32:24;39.78;;;22.77;;
61013;SDS011;46899;47.542;19.082;2024-03-08T12:35:32;38.97;;;22.42;;
61013;SDS011;46899;47.542;19.082;2024-03-08T12:38:40;39.65;;;22.58;;
61013;SDS011;46899;47.542;19.082;2024-03-08T12:41:48;35.78;;;21.00;;
61013;SDS011;46899;47.542;19.082;2024-03-08T12:44:56;36.08;;;20.48;;
61013;SDS011;46899;47.542;19.082;2024-03-08T12:47:59;32.08;;;20.65;;
61013;SDS011;46899;47.542;19.082;2024-03-08T12:51:04;34.85;;;20.77;;
61013;SDS011;46899;47.542;19.082;2024-03-08T12:54:11;32.38;;;20.02;;
61013;SDS011;46899;47.542;19.082;2024-03-08T12:57:16;29.33;;;19.33;;
61013;SDS011;46899;47.542;19.082;2024-03-08T13:00:21;28.73;;;18.23;;
61013;SDS011;46899;47.542;19.082;2024-03-08T13:03:29;26.15;;;17.85;;
61013;SDS011;46899;47.542;19.082;2024-03-08T13:06:39;25.23;;;16.73;;
61013;SDS011;46899;47.542;19.082;2024-03-08T13:09:50;25.05;;;17.33;;
61013;SDS011;46899;47.542;19.082;2024-03-08T13:13:01;25.80;;;16.95;;
61013;SDS011;46899;47.542;19.082;2024-03-08T13:16:06;24.12;;;16.33;;
61013;SDS011;46899;47.542;19.082;2024-03-08T13:19:18;25.30;;;17.85;;
61013;SDS011;46899;47.542;19.082;2024-03-08T13:22:30;27.60;;;18.20;;
61013;SDS011;46899;47.542;19.082;2024-03-08T13:25:41;30.98;;;18.65;;
61013;SDS011;46899;47.542;19.082;2024-03-08T13:28:48;32.95;;;20.05;;
61013;SDS011;46899;47.542;19.082;2024-03-08T13:32:00;35.10;;;20.98;;
61013;SDS011;46899;47.542;19.082;2024-03-08T13:35:08;38.70;;;22.40;;
61013;SDS011;46899;47.542;19.082;2024-03-08T13:38:24;36.33;;;21.05;;
61013;SDS011;46899;47.542;19.082;2024-03-08T13:41:33;36.53;;;21.85;;
61013;SDS011;46899;47.542;19.082;2024-03-08T13:44:43;35.53;;;20.95;;
61013;SDS011;46899;47.542;19.082;2024-03-08T13:47:53;34.85;;;21.95;;
61013;SDS011;46899;47.542;19.082;2024-03-08T13:51:03;33.55;;;20.70;;
61013;SDS011;46899;47.542;19.082;2024-03-08T13:54:16;33.88;;;21.25;;
61013;SDS011;46899;47.542;19.082;2024-03-08T13:57:26;33.22;;;21.12;;
61013;SDS011;46899;47.542;19.082;2024-03-08T14:00:35;32.75;;;20.23;;
61013;SDS011;46899;47.542;19.082;2024-03-08T14:03:49;41.72;;;20.20;;
61013;SDS011;46899;47.542;19.082;2024-03-08T14:06:58;32.67;;;20.23;;
61013;SDS011;46899;47.542;19.082;2024-03-08T14:13:21;34.20;;;20.45;;
61013;SDS011;46899;47.542;19.082;2024-03-08T14:16:30;31.52;;;19.08;;
61013;SDS011;46899;47.542;19.082;2024-03-08T14:19:39;32.22;;;20.27;;
61013;SDS011;46899;47.542;19.082;2024-03-08T14:22:54;34.63;;;20.52;;
61013;SDS011;46899;47.542;19.082;2024-03-08T14:26:02;33.78;;;20.37;;
61013;SDS011;46899;47.542;19.082;2024-03-08T14:29:10;34.88;;;20.20;;
61013;SDS011;46899;47.542;19.082;2024-03-08T14:32:23;33.30;;;20.15;;
61013;SDS011;46899;47.542;19.082;2024-03-08T14:35:31;33.33;;;20.48;;
61013;SDS011;46899;47.542;19.082;2024-03-08T14:38:42;30.42;;;19.35;;
61013;SDS011;46899;47.542;19.082;2024-03-08T14:41:55;32.92;;;19.52;;
61013;SDS011;46899;47.542;19.082;2024-03-08T14:45:03;33.65;;;19.35;;
61013;SDS011;46899;47.542;19.082;2024-03-08T14:48:16;31.10;;;19.30;;
61013;SDS011;46899;47.542;19.082;2024-03-08T14:51:28;32.22;;;18.83;;
61013;SDS011;46899;47.542;19.082;2024-03-08T14:54:38;32.70;;;19.23;;
61013;SDS011;46899;47.542;19.082;2024-03-08T14:57:51;35.95;;;20.20;;
61013;SDS011;46899;47.542;19.082;2024-03-08T15:00:59;34.78;;;19.87;;
61013;SDS011;46899;47.542;19.082;2024-03-08T15:04:10;35.88;;;20.48;;
61013;SDS011;46899;47.542;19.082;2024-03-08T15:07:20;33.85;;;20.23;;
61013;SDS011;46899;47.542;19.082;2024-03-08T15:10:28;34.05;;;20.15;;
61013;SDS011;46899;47.542;19.082;2024-03-08T15:13:45;32.95;;;19.20;;
61013;SDS011;46899;47.542;19.082;2024-03-08T15:16:57;30.62;;;18.95;;
61013;SDS011;46899;47.542;19.082;2024-03-08T15:20:10;31.98;;;18.92;;
61013;SDS011;46899;47.542;19.082;2024-03-08T15:23:21;33.60;;;19.15;;
61013;SDS011;46899;47.542;19.082;2024-03-08T15:26:32;32.63;;;19.73;;
61013;SDS011;46899;47.542;19.082;2024-03-08T15:29:42;31.33;;;19.15;;
61013;SDS011;46899;47.542;19.082;2024-03-08T15:32:59;32.00;;;18.37;;
61013;SDS011;46899;47.542;19.082;2024-03-08T15:36:09;34.78;;;19.02;;
61013;SDS011;46899;47.542;19.082;2024-03-08T15:39:23;37.25;;;20.40;;
61013;SDS011;46899;47.542;19.082;2024-03-08T15:42:33;35.92;;;21.12;;
61013;SDS011;46899;47.542;19.082;2024-03-08T15:45:44;38.38;;;21.33;;
61013;SDS011;46899;47.542;19.082;2024-03-08T15:48:55;36.00;;;21.70;;
61013;SDS011;46899;47.542;19.082;2024-03-08T15:52:08;36.60;;;21.25;;
61013;SDS011;46899;47.542;19.082;2024-03-08T15:55:17;34.67;;;20.62;;
61013;SDS011;46899;47.542;19.082;2024-03-08T15:58:36;33.97;;;21.40;;
61013;SDS011;46899;47.542;19.082;2024-03-08T16:01:43;31.58;;;19.67;;
61013;SDS011;46899;47.542;19.082;2024-03-08T16:05:02;32.75;;;19.45;;
61013;SDS011;46899;47.542;19.082;2024-03-08T16:08:17;35.25;;;20.58;;
61013;SDS011;46899;47.542;19.082;2024-03-08T16:11:29;34.58;;;20.88;;
61013;SDS011;46899;47.542;19.082;2024-03-08T16:14:39;34.45;;;19.65;;
61013;SDS011;46899;47.542;19.082;2024-03-08T16:17:53;36.92;;;21.83;;
61013;SDS011;46899;47.542;19.082;2024-03-08T16:21:02;36.38;;;20.70;;
61013;SDS011;46899;47.542;19.082;2024-03-08T16:24:14;34.90;;;21.23;;
61013;SDS011;46899;47.542;19.082;2024-03-08T16:27:24;32.90;;;19.92;;
61013;SDS011;46899;47.542;19.082;2024-03-08T16:30:36;37.25;;;21.65;;
61013;SDS011;46899;47.542;19.082;2024-03-08T16:33:53;33.83;;;20.83;;
61013;SDS011;46899;47.542;19.082;2024-03-08T16:37:06;33.00;;;21.05;;
61013;SDS011;46899;47.542;19.082;2024-03-08T16:40:16;35.45;;;22.15;;
61013;SDS011;46899;47.542;19.082;2024-03-08T16:43:30;34.63;;;21.27;;
61013;SDS011;46899;47.542;19.082;2024-03-08T16:46:40;40.12;;;22.73;;
61013;SDS011;46899;47.542;19.082;2024-03-08T16:49:56;30.58;;;18.98;;
61013;SDS011;46899;47.542;19.082;2024-03-08T16:53:04;35.90;;;20.85;;
61013;SDS011;46899;47.542;19.082;2024-03-08T16:56:18;35.13;;;20.42;;
61013;SDS011;46899;47.542;19.082;2024-03-08T16:59:33;34.80;;;20.52;;
61013;SDS011;46899;47.542;19.082;2024-03-08T17:02:47;34.85;;;20.83;;
61013;SDS011;46899;47.542;19.082;2024-03-08T17:05:58;32.53;;;20.00;;
61013;SDS011;46899;47.542;19.082;2024-03-08T17:09:08;33.80;;;20.52;;
61013;SDS011;46899;47.542;19.082;2024-03-08T17:12:21;37.60;;;21.23;;
61013;SDS011;46899;47.542;19.082;2024-03-08T17:15:35;36.28;;;21.35;;
61013;SDS011;46899;47.542;19.082;2024-03-08T17:18:51;39.67;;;21.73;;
61013;SDS011;46899;47.542;19.082;2024-03-08T17:22:03;35.00;;;20.98;;
61013;SDS011;46899;47.542;19.082;2024-03-08T17:25:15;32.65;;;21.00;;
61013;SDS011;46899;47.542;19.082;2024-03-08T17:28:30;39.65;;;22.25;;
61013;SDS011;46899;47.542;19.082;2024-03-08T17:31:50;38.40;;;22.90;;
61013;SDS011;46899;47.542;19.082;2024-03-08T17:35:02;39.75;;;22.77;;
61013;SDS011;46899;47.542;19.082;2024-03-08T17:38:19;36.03;;;22.13;;
61013;SDS011;46899;47.542;19.082;2024-03-08T17:41:32;35.92;;;21.27;;
61013;SDS011;46899;47.542;19.082;2024-03-08T17:44:44;41.90;;;22.90;;
61013;SDS011;46899;47.542;19.082;2024-03-08T17:47:54;36.17;;;21.42;;
61013;SDS011;46899;47.542;19.082;2024-03-08T17:51:03;34.90;;;20.60;;
61013;SDS011;46899;47.542;19.082;2024-03-08T17:54:21;34.33;;;22.33;;
61013;SDS011;46899;47.542;19.082;2024-03-08T17:57:31;38.42;;;22.52;;
61013;SDS011;46899;47.542;19.082;2024-03-08T18:00:46;39.03;;;22.83;;
61013;SDS011;46899;47.542;19.082;2024-03-08T18:04:01;36.00;;;20.92;;
61013;SDS011;46899;47.542;19.082;2024-03-08T18:07:21;37.47;;;22.48;;
61013;SDS011;46899;47.542;19.082;2024-03-08T18:10:36;38.65;;;22.17;;
61013;SDS011;46899;47.542;19.082;2024-03-08T18:13:55;36.22;;;21.48;;
61013;SDS011;46899;47.542;19.082;2024-03-08T18:17:06;40.33;;;22.00;;
61013;SDS011;46899;47.542;19.082;2024-03-08T18:20:19;42.10;;;23.87;;
61013;SDS011;46899;47.542;19.082;2024-03-08T18:23:45;42.55;;;22.80;;
61013;SDS011;46899;47.542;19.082;2024-03-08T18:26:58;40.60;;;23.90;;
61013;SDS011;46899;47.542;19.082;2024-03-08T18:30:10;38.55;;;22.17;;
61013;SDS011;46899;47.542;19.082;2024-03-08T18:33:29;37.53;;;22.67;;
61013;SDS011;46899;47.542;19.082;2024-03-08T18:36:41;41.22;;;22.90;;